Sunday, June 17, 2018, 10:14 PM EDT
Back to Local

KMTP, Montauk Airport

Location: Montauk, NY, United States Lat: 41.067
Local Time: 10:14 PM EDT ( 2:14 GMT) Lon: -71.917
Time Zone: US/Eastern Elev: 6 ft

Show me the last for .
Show Decoded

2018-06-17 21:54 METAR KMTP 180154Z AUTO VRB03KT 18/18 A3010 RMK AO1 SLP192 T01830178 =
2018-06-17 20:54 METAR KMTP 180054Z AUTO VRB03KT 19/18 A3009 RMK AO1 SLP189 T01890178 =
2018-06-17 19:54 METAR KMTP 172354Z AUTO 16004KT 20/18 A3010 RMK AO1 SLP191 T02000183 10256 20200
                 58000 =
2018-06-17 18:54 METAR KMTP 172254Z AUTO VRB03KT 22/17 A3010 RMK AO1 SLP191 T02220172 =
2018-06-17 17:54 METAR KMTP 172154Z AUTO 17004KT 23/17 A3010 RMK AO1 SLP191 T02330167 =
2018-06-17 16:54 METAR KMTP 172054Z AUTO 19004KT 24/16 A3010 RMK AO1 SLP191 T02440161 53003 =
2018-06-17 15:54 METAR KMTP 171954Z AUTO VRB03KT 26/16 A3009 RMK AO1 SLP190 T02560156 =
2018-06-17 14:54 METAR KMTP 171854Z AUTO VRB04KT 24/17 A3009 RMK AO1 SLP188 T02440172 =
2018-06-17 13:54 METAR KMTP 171754Z AUTO VRB03KT 25/18 A3009 RMK AO1 SLP188 T02500178 10278 20200
                 57007 =
2018-06-17 12:54 METAR KMTP 171654Z AUTO VRB05KT 24/17 A3009 RMK AO1 SLP190 T02440172 =
2018-06-17 11:54 METAR KMTP 171554Z AUTO 25003KT 27/13 A3011 RMK AO1 SLP195 T02720128 =
2018-06-17 10:54 METAR KMTP 171454Z AUTO VRB03KT 25/12 A3011 RMK AO1 SLP196 T02500122 53010 =
2018-06-17 09:54 METAR KMTP 171354Z AUTO 30003KT 23/13 A3010 RMK AO1 SLP191 T02330128 =
2018-06-17 08:54 METAR KMTP 171254Z AUTO 27003KT 22/13 A3008 RMK AO1 SLP186 T02170133 =
2018-06-17 07:54 METAR KMTP 171154Z AUTO 31003KT 21/16 A3008 RMK AO1 SLP186 T02060156 10206 20133
                 53014 =
2018-06-17 06:54 METAR KMTP 171054Z AUTO 00000KT 19/15 A3007 RMK AO1 SLP181 T01890150 =
2018-06-17 05:54 METAR KMTP 170954Z AUTO 00000KT 13/13 A3006 RMK AO1 SLP178 T01330128 =
2018-06-17 04:54 METAR KMTP 170854Z AUTO 00000KT 14/13 A3004 RMK AO1 SLP173 T01390128 50001 =
2018-06-17 03:54 METAR KMTP 170754Z AUTO 00000KT 14/12 A3005 RMK AO1 SLP174 T01440122 =
2018-06-17 02:54 METAR KMTP 170654Z AUTO 00000KT 14/13 A3004 RMK AO1 SLP173 T01390133 =
2018-06-17 01:54 METAR KMTP 170554Z AUTO 00000KT 16/14 A3004 RMK AO1 SLP172 T01560139 10206 20156
                 50003 =
2018-06-17 00:54 METAR KMTP 170454Z AUTO 29003KT 17/15 A3005 RMK AO1 SLP175 T01720150 402720150 =
2018-06-16 23:54 METAR KMTP 170354Z AUTO 00000KT 17/14 A3005 RMK AO1 SLP176 T01670139 =
2018-06-16 22:54 METAR KMTP 170254Z AUTO VRB03KT 19/13 A3003 RMK AO1 SLP168 T01940128 51013 =

Support USWX by starting your Amazon purchase here.